createdAt,value
2018-04-26T00:03:58.912Z,12.23
2018-04-26T00:08:42.260Z,12.93
2018-04-26T00:13:25.625Z,11.30
2018-04-26T00:18:08.927Z,12.20
2018-04-26T00:22:52.270Z,12.00
2018-04-26T00:27:36.371Z,12.03
2018-04-26T00:32:19.703Z,11.63
2018-04-26T00:37:02.974Z,12.70
2018-04-26T00:41:46.296Z,12.50
2018-04-26T00:46:29.611Z,12.20
2018-04-26T00:51:12.951Z,12.13
2018-04-26T00:55:56.279Z,12.67
2018-04-26T01:00:39.611Z,13.23
2018-04-26T01:05:23.700Z,13.70
2018-04-26T01:10:07.047Z,12.07
2018-04-26T01:14:50.354Z,14.00
2018-04-26T01:19:34.428Z,13.43
2018-04-26T01:24:17.755Z,13.40
2018-04-26T01:29:01.173Z,13.17
2018-04-26T01:33:44.442Z,13.07
2018-04-26T01:38:27.771Z,13.53
2018-04-26T01:43:11.940Z,14.60
2018-04-26T01:47:55.261Z,14.83
2018-04-26T01:52:39.349Z,14.97
2018-04-26T01:57:22.642Z,14.63
2018-04-26T02:02:06.005Z,13.40
2018-04-26T02:06:50.080Z,14.53
2018-04-26T02:11:33.447Z,14.83
2018-04-26T02:16:16.723Z,14.57
2018-04-26T02:21:00.066Z,14.00
2018-04-26T02:25:43.507Z,14.00
2018-04-26T02:30:26.884Z,13.73
2018-04-26T02:35:10.938Z,14.03
2018-04-26T02:39:54.275Z,14.57
2018-04-26T02:44:37.615Z,14.83
2018-04-26T02:49:21.702Z,15.07
2018-04-26T02:54:05.141Z,14.37
2018-04-26T02:58:48.459Z,13.97
2018-04-26T03:03:31.838Z,15.67
2018-04-26T03:08:15.378Z,15.00
2018-04-26T03:12:58.590Z,13.50
2018-04-26T03:17:41.958Z,15.97
2018-04-26T03:22:25.261Z,15.07
2018-04-26T03:27:08.558Z,15.93
2018-04-26T03:31:51.911Z,14.83
2018-04-26T03:36:35.255Z,15.63
2018-04-26T03:41:19.374Z,14.23
2018-04-26T03:46:02.655Z,14.13
2018-04-26T03:50:46.821Z,16.03
2018-04-26T03:55:30.161Z,15.73
2018-04-26T04:00:25.323Z,15.07
2018-04-26T04:10:26.184Z,16.73
2018-04-26T04:15:09.504Z,17.23
2018-04-26T04:19:52.812Z,17.50
2018-04-26T04:24:36.179Z,16.67
2018-04-26T04:29:19.529Z,16.40
2018-04-26T04:34:02.856Z,16.00
2018-04-26T04:38:46.200Z,16.93
2018-04-26T04:43:29.540Z,15.97
2018-04-26T04:48:12.901Z,17.07
2018-04-26T04:52:57.104Z,14.97
2018-04-26T04:57:40.422Z,15.50
2018-04-26T05:02:23.737Z,15.20
2018-04-26T05:07:07.142Z,14.57
2018-04-26T05:11:51.247Z,14.40
2018-04-26T05:16:34.645Z,13.80
2018-04-26T05:21:17.915Z,15.37
2018-04-26T05:26:02.015Z,14.93
2018-04-26T05:30:45.376Z,16.20
2018-04-26T05:35:28.832Z,14.97
2018-04-26T05:40:12.128Z,15.80
2018-04-26T05:44:59.314Z,15.17
2018-04-26T05:49:42.869Z,16.63
2018-04-26T05:54:26.231Z,15.50
2018-04-26T05:59:09.574Z,14.90
2018-04-26T06:03:53.020Z,14.67
2018-04-26T06:08:36.376Z,12.60
2018-04-26T06:13:19.777Z,9.70
2018-04-26T06:18:03.114Z,10.00
2018-04-26T06:22:47.543Z,10.03
2018-04-26T06:27:30.961Z,10.00
2018-04-26T06:32:14.327Z,8.30
2018-04-26T06:36:57.647Z,7.73
2018-04-26T06:41:40.934Z,8.30
2018-04-26T06:46:24.298Z,8.27
2018-04-26T06:51:07.599Z,8.63
2018-04-26T06:55:50.906Z,9.70
2018-04-26T07:00:34.356Z,11.03
2018-04-26T07:05:18.395Z,11.33
2018-04-26T07:10:01.710Z,11.23
2018-04-26T07:14:45.841Z,10.00
2018-04-26T07:19:29.184Z,10.10
2018-04-26T07:24:12.534Z,9.53
2018-04-26T07:28:55.861Z,9.33
2018-04-26T07:33:39.275Z,9.53
2018-04-26T07:38:22.636Z,8.67
2018-04-26T07:43:06.032Z,7.00
2018-04-26T07:47:49.384Z,7.33
2018-04-26T07:52:32.729Z,5.53
2018-04-26T07:57:16.053Z,5.17
2018-04-26T08:01:59.364Z,4.40
2018-04-26T08:06:42.743Z,3.53
2018-04-26T08:11:26.124Z,3.37
2018-04-26T08:16:09.447Z,2.20
2018-04-26T08:20:52.763Z,2.47
2018-04-26T08:25:36.138Z,3.00
2018-04-26T08:30:19.425Z,2.37
2018-04-26T08:35:02.831Z,2.00
2018-04-26T08:39:46.122Z,2.13
2018-04-26T08:44:29.516Z,1.60
2018-04-26T08:49:12.853Z,1.70
2018-04-26T08:53:56.183Z,1.93
2018-04-26T08:58:39.614Z,2.27
2018-04-26T09:03:23.004Z,1.80
2018-04-26T09:08:07.113Z,1.77
2018-04-26T09:12:50.421Z,1.93
2018-04-26T09:17:33.801Z,1.80
2018-04-26T09:22:17.126Z,2.00
2018-04-26T09:27:00.455Z,1.90
2018-04-26T09:31:43.799Z,1.90
2018-04-26T09:36:27.118Z,1.70
2018-04-26T09:41:10.419Z,1.53
2018-04-26T09:45:54.537Z,1.60
2018-04-26T09:50:37.851Z,1.30
2018-04-26T09:55:21.985Z,1.20
2018-04-26T10:00:05.323Z,1.37
2018-04-26T10:04:55.342Z,1.23
2018-04-26T10:09:38.658Z,1.30
2018-04-26T10:14:21.961Z,1.17
2018-04-26T10:19:05.403Z,1.17
2018-04-26T10:23:49.475Z,1.33
2018-04-26T10:28:32.809Z,1.50
2018-04-26T10:33:16.123Z,1.50
2018-04-26T10:37:59.434Z,1.40
2018-04-26T10:42:43.552Z,1.30
2018-04-26T10:47:26.848Z,1.07
2018-04-26T10:52:10.166Z,1.33
2018-04-26T10:56:54.249Z,1.20
2018-04-26T11:01:37.616Z,1.27
2018-04-26T11:06:20.911Z,0.90
2018-04-26T11:11:05.026Z,0.80
2018-04-26T11:15:48.379Z,0.90
2018-04-26T11:20:31.776Z,1.00
2018-04-26T11:25:15.094Z,1.20
2018-04-26T11:29:59.153Z,1.20
2018-04-26T11:34:43.282Z,1.60
2018-04-26T11:39:26.588Z,1.37
2018-04-26T11:44:09.907Z,1.97
2018-04-26T11:48:53.195Z,1.53
2018-04-26T11:53:36.554Z,1.70
2018-04-26T11:58:19.898Z,1.53
2018-04-26T12:03:04.006Z,1.30
2018-04-26T12:07:47.550Z,2.47
2018-04-26T12:12:30.888Z,2.40
2018-04-26T12:17:14.299Z,1.30
2018-04-26T12:21:57.644Z,1.33
2018-04-26T12:26:41.017Z,1.20
2018-04-26T12:31:24.337Z,1.40
2018-04-26T12:36:07.670Z,1.50
2018-04-26T12:40:51.061Z,1.80
2018-04-26T12:45:34.397Z,1.90
2018-04-26T12:50:18.628Z,2.13
2018-04-26T12:55:01.857Z,2.00
2018-04-26T12:59:45.207Z,2.53
2018-04-26T13:04:28.630Z,2.00
2018-04-26T13:09:11.944Z,2.47
2018-04-26T13:13:56.103Z,2.73
2018-04-26T13:18:40.190Z,3.30
2018-04-26T13:23:23.656Z,3.47
2018-04-26T13:28:06.902Z,3.50
2018-04-26T13:32:51.015Z,3.60
2018-04-26T13:37:35.187Z,4.30
2018-04-26T13:42:28.543Z,3.80
2018-04-26T13:47:22.558Z,3.87
2018-04-26T13:53:45.008Z,3.70
2018-04-26T13:58:29.113Z,3.60
2018-04-26T14:03:13.529Z,3.30
2018-04-26T14:07:57.936Z,3.77
2018-04-26T14:12:44.745Z,3.20
2018-04-26T14:17:33.530Z,2.37
2018-04-26T14:22:17.784Z,2.10
2018-04-26T14:27:01.113Z,2.17
2018-04-26T14:31:46.156Z,1.90
2018-04-26T14:36:29.525Z,1.60
2018-04-26T14:41:13.604Z,0.90
2018-04-26T14:45:56.986Z,1.30
2018-04-26T14:50:40.997Z,1.30
2018-04-26T14:55:24.506Z,1.10
2018-04-26T15:00:11.654Z,1.40
2018-04-26T15:04:57.250Z,1.67
2018-04-26T15:09:41.734Z,1.53
2018-04-26T15:14:27.493Z,2.20
2018-04-26T15:19:11.574Z,1.80
2018-04-26T15:23:57.260Z,2.00
2018-04-26T15:28:44.519Z,1.97
2018-04-26T15:33:37.557Z,1.73
2018-04-26T15:38:29.366Z,1.90
2018-04-26T15:43:14.917Z,2.20
2018-04-26T15:48:05.597Z,2.00
2018-04-26T15:53:13.100Z,1.57
2018-04-26T15:58:27.099Z,2.13
2018-04-26T16:03:26.395Z,1.90
2018-04-26T16:08:28.051Z,2.20
2018-04-26T16:13:36.687Z,1.90
2018-04-26T16:18:37.944Z,2.40
2018-04-26T16:29:00.733Z,2.70
2018-04-26T17:22:15.626Z,2.23
2018-04-26T17:47:59.456Z,3.33
2018-04-26T17:52:42.832Z,3.50
2018-04-26T17:57:26.165Z,3.53
2018-04-26T18:02:09.500Z,4.03
2018-04-26T18:06:52.855Z,3.03
2018-04-26T18:11:36.208Z,3.03
2018-04-26T18:16:19.532Z,2.83
2018-04-26T18:21:02.898Z,3.10
2018-04-26T18:25:47.050Z,2.67
2018-04-26T18:30:30.476Z,3.23
2018-04-26T18:35:13.858Z,3.03
2018-04-26T18:39:57.420Z,3.87
2018-04-26T18:44:40.907Z,3.23
2018-04-26T18:49:24.455Z,3.20
2018-04-26T18:54:07.905Z,3.13
2018-04-26T18:58:51.235Z,3.23
2018-04-26T19:03:34.736Z,2.97
2018-04-26T19:08:18.111Z,3.83
2018-04-26T19:13:02.169Z,3.17
2018-04-26T19:17:46.298Z,3.60
2018-04-26T19:22:29.734Z,4.37
2018-04-26T19:27:13.113Z,3.33
2018-04-26T19:31:57.210Z,3.40
2018-04-26T19:36:40.686Z,3.80
2018-04-26T19:41:24.804Z,4.30
2018-04-26T19:46:08.164Z,4.50
2018-04-26T19:50:51.506Z,4.73
2018-04-26T19:55:34.822Z,4.80
2018-04-26T20:00:18.195Z,5.17
2018-04-26T20:05:01.510Z,4.80
2018-04-26T20:09:44.811Z,5.00
2018-04-26T20:14:28.900Z,5.10
2018-04-26T20:19:12.209Z,5.30
2018-04-26T20:23:56.291Z,5.40
2018-04-26T20:28:39.634Z,4.70
2018-04-26T20:33:22.911Z,5.30
2018-04-26T20:38:06.232Z,5.13
2018-04-26T20:42:49.554Z,4.80
2018-04-26T20:47:32.848Z,4.73
2018-04-26T20:52:16.170Z,5.70
2018-04-26T20:56:59.536Z,5.20
2018-04-26T21:01:42.843Z,5.53
2018-04-26T21:06:26.121Z,5.53
2018-04-26T21:11:09.407Z,5.43
2018-04-26T21:15:52.715Z,4.70
2018-04-26T21:20:36.792Z,4.90
2018-04-26T21:25:20.062Z,5.17
2018-04-26T21:30:03.319Z,5.20
2018-04-26T21:34:46.630Z,4.60
2018-04-26T21:39:29.931Z,5.03
2018-04-26T21:44:13.252Z,5.10
2018-04-26T21:48:57.322Z,4.60
2018-04-26T21:53:46.171Z,4.43
2018-04-26T21:58:35.052Z,4.73
2018-04-26T22:03:34.790Z,4.80
2018-04-26T22:08:18.130Z,4.97
2018-04-26T22:13:01.458Z,4.47
2018-04-26T22:17:45.534Z,4.93
2018-04-26T22:22:28.881Z,4.60
2018-04-26T22:27:12.922Z,5.10
2018-04-26T22:31:56.277Z,5.10
2018-04-26T22:36:39.605Z,5.23
2018-04-26T22:41:23.683Z,5.53
2018-04-26T22:46:07.134Z,4.70
2018-04-26T22:50:50.466Z,4.60
2018-04-26T22:55:33.809Z,4.77
2018-04-26T23:00:17.116Z,4.73
2018-04-26T23:05:00.422Z,4.43
2018-04-26T23:09:43.776Z,4.90
2018-04-26T23:14:27.076Z,4.70
2018-04-26T23:19:10.375Z,5.10
2018-04-26T23:23:54.487Z,5.27
2018-04-26T23:28:37.776Z,5.47
2018-04-26T23:33:21.857Z,5.60
2018-04-26T23:38:05.912Z,4.90
2018-04-26T23:42:49.206Z,5.50
2018-04-26T23:47:32.498Z,5.33
2018-04-26T23:52:15.815Z,4.80
2018-04-26T23:56:59.133Z,5.30
